createdAt,value
2022-12-12T00:00:48.598Z,1004.47
2022-12-12T00:01:48.839Z,1004.43
2022-12-12T00:02:49.208Z,1004.44
2022-12-12T00:03:49.457Z,1004.40
2022-12-12T00:04:49.657Z,1004.37
2022-12-12T00:05:49.897Z,1004.35
2022-12-12T00:06:50.160Z,1004.42
2022-12-12T00:07:50.438Z,1004.36
2022-12-12T00:08:50.696Z,1004.32
2022-12-12T00:09:50.936Z,1004.31
2022-12-12T00:10:51.175Z,1004.33
2022-12-12T00:11:51.408Z,1004.34
2022-12-12T00:12:51.657Z,1004.32
2022-12-12T00:13:51.887Z,1004.33
2022-12-12T00:14:52.137Z,1004.33
2022-12-12T00:15:52.442Z,1004.38
2022-12-12T00:16:52.699Z,1004.37
2022-12-12T00:17:52.969Z,1004.36
2022-12-12T00:18:53.219Z,1004.39
2022-12-12T00:19:53.476Z,1004.41
2022-12-12T00:20:53.729Z,1004.47
2022-12-12T00:21:53.998Z,1004.49
2022-12-12T00:22:54.267Z,1004.49
2022-12-12T00:23:54.542Z,1004.52
2022-12-12T00:24:54.798Z,1004.41
2022-12-12T00:25:55.028Z,1004.45
2022-12-12T00:26:55.273Z,1004.41
2022-12-12T00:27:55.530Z,1004.44
2022-12-12T00:28:55.782Z,1004.40
2022-12-12T00:29:56.048Z,1004.44
2022-12-12T00:30:56.379Z,1004.41
2022-12-12T00:31:56.628Z,1004.42
2022-12-12T00:32:56.880Z,1004.50
2022-12-12T00:33:57.109Z,1004.35
2022-12-12T00:34:57.354Z,1004.34
2022-12-12T00:35:57.601Z,1004.40
2022-12-12T00:36:57.850Z,1004.38
2022-12-12T00:37:58.112Z,1004.37
2022-12-12T00:38:58.345Z,1004.35
2022-12-12T00:39:58.579Z,1004.34
2022-12-12T00:40:58.851Z,1004.41
2022-12-12T00:41:59.087Z,1004.36
2022-12-12T00:42:59.368Z,1004.40
2022-12-12T00:43:59.611Z,1004.34
2022-12-12T00:44:59.869Z,1004.34
2022-12-12T00:46:00.198Z,1004.29
2022-12-12T00:47:00.480Z,1004.27
2022-12-12T00:48:00.712Z,1004.24
2022-12-12T00:49:00.961Z,1004.33
2022-12-12T00:50:01.225Z,1004.32
2022-12-12T00:51:01.492Z,1004.34
2022-12-12T00:52:01.701Z,1004.35
2022-12-12T00:53:02.054Z,1004.36
2022-12-12T00:54:02.292Z,1004.40
2022-12-12T00:55:02.532Z,1004.44
2022-12-12T00:56:02.811Z,1004.35
2022-12-12T00:57:03.054Z,1004.41
2022-12-12T00:58:03.284Z,1004.36
2022-12-12T00:59:03.528Z,1004.36
2022-12-12T01:00:03.752Z,1004.35
2022-12-12T01:01:04.121Z,1004.37
2022-12-12T01:02:04.396Z,1004.42
2022-12-12T01:03:04.653Z,1004.43
2022-12-12T01:04:04.906Z,1004.41
2022-12-12T01:05:06.084Z,1004.39
2022-12-12T01:06:05.424Z,1004.43
2022-12-12T01:07:05.641Z,1004.42
2022-12-12T01:08:05.947Z,1004.48
2022-12-12T01:09:06.184Z,1004.47
2022-12-12T01:10:06.417Z,1004.48
2022-12-12T01:11:06.673Z,1004.47
2022-12-12T01:12:06.896Z,1004.49
2022-12-12T01:13:07.134Z,1004.43
2022-12-12T01:14:07.514Z,1004.50
2022-12-12T01:15:07.731Z,1004.46
2022-12-12T01:16:08.111Z,1004.45
2022-12-12T01:17:08.344Z,1004.51
2022-12-12T01:18:08.678Z,1004.52
2022-12-12T01:19:08.934Z,1004.51
2022-12-12T01:20:09.133Z,1004.52
2022-12-12T01:21:09.504Z,1004.46
2022-12-12T01:22:09.743Z,1004.49
2022-12-12T01:23:09.958Z,1004.49
2022-12-12T01:24:10.304Z,1004.50
2022-12-12T01:25:10.865Z,1004.55
2022-12-12T01:26:10.827Z,1004.52
2022-12-12T01:27:11.034Z,1004.54
2022-12-12T01:28:11.364Z,1004.56
2022-12-12T01:29:11.698Z,1004.50
2022-12-12T01:30:12.078Z,1004.54
2022-12-12T01:31:12.380Z,1004.63
2022-12-12T01:32:12.615Z,1004.61
2022-12-12T01:33:12.945Z,1004.58
2022-12-12T01:34:13.269Z,1004.58
2022-12-12T01:35:14.011Z,1004.60
2022-12-12T01:36:13.960Z,1004.61
2022-12-12T01:37:14.177Z,1004.58
2022-12-12T01:38:14.525Z,1004.55
2022-12-12T01:39:14.764Z,1004.63
2022-12-12T01:40:15.096Z,1004.63
2022-12-12T01:41:15.437Z,1004.57
2022-12-12T01:42:15.766Z,1004.58
2022-12-12T01:43:16.094Z,1004.57
2022-12-12T01:44:16.427Z,1004.60
2022-12-12T01:45:16.767Z,1004.61
2022-12-12T01:46:17.146Z,1004.63
2022-12-12T01:47:17.366Z,1004.63
2022-12-12T01:48:17.688Z,1004.58
2022-12-12T01:49:18.047Z,1004.63
2022-12-12T01:50:18.258Z,1004.64
2022-12-12T01:51:18.618Z,1004.65
2022-12-12T01:52:18.827Z,1004.59
2022-12-12T01:53:19.158Z,1004.63
2022-12-12T01:54:19.488Z,1004.64
2022-12-12T01:55:19.808Z,1004.63
2022-12-12T01:56:20.159Z,1004.67
2022-12-12T01:57:20.368Z,1004.65
2022-12-12T01:58:20.709Z,1004.66
2022-12-12T01:59:21.055Z,1004.61
2022-12-12T02:00:21.305Z,1004.60
2022-12-12T02:01:21.578Z,1004.63
2022-12-12T02:02:21.846Z,1004.66
2022-12-12T02:03:22.063Z,1004.64
2022-12-12T02:04:22.399Z,1004.64
2022-12-12T02:05:22.729Z,1004.61
2022-12-12T02:06:23.081Z,1004.60
2022-12-12T02:07:23.300Z,1004.63
2022-12-12T02:08:23.700Z,1004.64
2022-12-12T02:09:23.909Z,1004.65
2022-12-12T02:10:24.249Z,1004.67
2022-12-12T02:11:24.579Z,1004.62
2022-12-12T02:12:24.910Z,1004.64
2022-12-12T02:13:25.245Z,1004.57
2022-12-12T02:14:25.571Z,1004.63
2022-12-12T02:15:25.898Z,1004.59
2022-12-12T02:16:26.266Z,1004.56
2022-12-12T02:17:26.508Z,1004.57
2022-12-12T02:18:26.825Z,1004.59
2022-12-12T02:19:27.149Z,1004.51
2022-12-12T02:20:27.481Z,1004.50
2022-12-12T02:21:27.820Z,1004.55
2022-12-12T02:22:28.163Z,1004.59
2022-12-12T02:23:28.474Z,1004.53
2022-12-12T02:24:28.819Z,1004.57
2022-12-12T02:25:29.141Z,1004.56
2022-12-12T02:26:29.495Z,1004.51
2022-12-12T02:27:29.824Z,1004.59
2022-12-12T02:28:30.052Z,1004.54
2022-12-12T02:29:30.381Z,1004.58
2022-12-12T02:30:30.702Z,1004.54
2022-12-12T02:31:31.117Z,1004.50
2022-12-12T02:32:31.374Z,1004.49
2022-12-12T02:33:31.574Z,1004.44
2022-12-12T02:34:31.922Z,1004.50
2022-12-12T02:35:32.233Z,1004.46
2022-12-12T02:36:32.573Z,1004.48
2022-12-12T02:37:32.894Z,1004.43
2022-12-12T02:38:33.236Z,1004.51
2022-12-12T02:39:33.554Z,1004.48
2022-12-12T02:40:33.873Z,1004.43
2022-12-12T02:41:34.212Z,1004.52
2022-12-12T02:42:34.534Z,1004.42
2022-12-12T02:43:34.854Z,1004.45
2022-12-12T02:44:35.174Z,1004.43
2022-12-12T02:45:35.521Z,1004.43
2022-12-12T02:46:35.939Z,1004.45
2022-12-12T02:47:36.144Z,1004.49
2022-12-12T02:48:36.486Z,1004.53
2022-12-12T02:49:36.829Z,1004.49
2022-12-12T02:50:37.155Z,1004.48
2022-12-12T02:51:37.485Z,1004.45
2022-12-12T02:52:37.824Z,1004.47
2022-12-12T02:53:38.157Z,1004.47
2022-12-12T02:54:38.484Z,1004.44
2022-12-12T02:55:38.810Z,1004.47
2022-12-12T02:56:39.156Z,1004.45
2022-12-12T02:57:39.374Z,1004.47
2022-12-12T02:58:39.725Z,1004.45
2022-12-12T02:59:39.934Z,1004.47
2022-12-12T03:00:40.313Z,1004.43
2022-12-12T03:01:40.563Z,1004.49
2022-12-12T03:02:40.753Z,1004.43
2022-12-12T03:03:41.097Z,1004.43
2022-12-12T03:04:41.428Z,1004.44
2022-12-12T03:05:41.761Z,1004.45
2022-12-12T03:06:42.104Z,1004.41
2022-12-12T03:07:42.476Z,1004.48
2022-12-12T03:08:42.696Z,1004.40
2022-12-12T03:09:43.026Z,1004.40
2022-12-12T03:10:43.347Z,1004.38
2022-12-12T03:11:43.696Z,1004.42
2022-12-12T03:12:44.026Z,1004.36
2022-12-12T03:13:44.356Z,1004.40
2022-12-12T03:14:44.701Z,1004.39
2022-12-12T03:15:45.026Z,1004.43
2022-12-12T03:16:45.406Z,1004.42
2022-12-12T03:17:45.637Z,1004.39
2022-12-12T03:18:45.974Z,1004.45
2022-12-12T03:19:46.298Z,1004.35
2022-12-12T03:20:46.627Z,1004.44
2022-12-12T03:21:46.967Z,1004.39
2022-12-12T03:22:47.306Z,1004.37
2022-12-12T03:23:47.632Z,1004.40
2022-12-12T03:24:47.965Z,1004.36
2022-12-12T03:25:48.290Z,1004.37
2022-12-12T03:26:48.637Z,1004.37
2022-12-12T03:27:48.967Z,1004.38
2022-12-12T03:28:49.306Z,1004.43
2022-12-12T03:29:49.628Z,1004.39
2022-12-12T03:30:49.957Z,1004.37
2022-12-12T03:31:50.440Z,1004.31
2022-12-12T03:32:50.598Z,1004.35
2022-12-12T03:33:50.931Z,1004.36
2022-12-12T03:34:51.272Z,1004.39
2022-12-12T03:35:51.598Z,1004.36
2022-12-12T03:36:51.953Z,1004.44
2022-12-12T03:37:52.159Z,1004.50
2022-12-12T03:38:52.491Z,1004.39
2022-12-12T03:39:52.819Z,1004.40
2022-12-12T03:40:53.141Z,1004.42
2022-12-12T03:41:53.501Z,1004.43
2022-12-12T03:42:53.714Z,1004.48
2022-12-12T03:44:01.564Z,1004.51
2022-12-12T03:44:54.385Z,1004.51
2022-12-12T03:45:54.804Z,1004.45
2022-12-12T03:46:55.004Z,1004.43
2022-12-12T03:47:55.332Z,1004.40
2022-12-12T03:48:55.671Z,1004.41
2022-12-12T03:49:56.008Z,1004.38
2022-12-12T03:50:56.343Z,1004.44
2022-12-12T03:51:56.684Z,1004.38
2022-12-12T03:52:57.025Z,1004.43
2022-12-12T03:53:57.355Z,1004.44
2022-12-12T03:54:57.685Z,1004.50
2022-12-12T03:55:58.004Z,1004.39
2022-12-12T03:56:58.356Z,1004.44
2022-12-12T03:57:58.574Z,1004.46
2022-12-12T03:58:58.915Z,1004.49
2022-12-12T03:59:59.236Z,1004.47
2022-12-12T04:00:59.653Z,1004.50
2022-12-12T04:01:59.936Z,1004.51
2022-12-12T04:03:00.143Z,1004.50
2022-12-12T04:04:00.480Z,1004.54
2022-12-12T04:05:00.796Z,1004.44
2022-12-12T04:06:01.116Z,1004.50
2022-12-12T04:07:01.480Z,1004.44
2022-12-12T04:08:01.708Z,1004.46
2022-12-12T04:09:01.945Z,1004.43
2022-12-12T04:10:02.274Z,1004.39
2022-12-12T04:11:02.607Z,1004.44
2022-12-12T04:12:02.946Z,1004.45
2022-12-12T04:13:03.287Z,1004.44
2022-12-12T04:14:03.615Z,1004.44
2022-12-12T04:15:03.948Z,1004.42
2022-12-12T04:16:04.276Z,1004.41
2022-12-12T04:17:04.628Z,1004.38
2022-12-12T04:18:04.947Z,1004.42
2022-12-12T04:19:05.290Z,1004.38
2022-12-12T04:20:05.701Z,1004.40
2022-12-12T04:21:05.926Z,1004.42
2022-12-12T04:22:06.274Z,1004.43
2022-12-12T04:23:06.599Z,1004.38
2022-12-12T04:24:06.938Z,1004.46
2022-12-12T04:25:07.277Z,1004.42
2022-12-12T04:26:07.606Z,1004.48
2022-12-12T04:27:07.947Z,1004.44
2022-12-12T04:28:08.158Z,1004.46
2022-12-12T04:29:08.488Z,1004.58
2022-12-12T04:30:08.827Z,1004.49
2022-12-12T04:31:09.151Z,1004.50
2022-12-12T04:32:09.541Z,1004.53
2022-12-12T04:33:09.758Z,1004.50
2022-12-12T04:34:10.080Z,1004.46
2022-12-12T04:35:10.555Z,1004.45
2022-12-12T04:36:10.718Z,1004.41
2022-12-12T04:37:11.052Z,1004.42
2022-12-12T04:38:11.369Z,1004.46
2022-12-12T04:39:11.688Z,1004.42
2022-12-12T04:40:12.011Z,1004.45
2022-12-12T04:41:12.331Z,1004.41
2022-12-12T04:42:12.680Z,1004.49
2022-12-12T04:43:12.889Z,1004.39
2022-12-12T04:44:13.210Z,1004.47
2022-12-12T04:45:13.865Z,1004.45
2022-12-12T04:46:13.916Z,1004.47
2022-12-12T04:47:14.155Z,1004.45
2022-12-12T04:48:14.351Z,1004.42
2022-12-12T04:49:14.680Z,1004.46
2022-12-12T04:50:15.009Z,1004.47
2022-12-12T04:51:15.341Z,1004.39
2022-12-12T04:52:15.701Z,1004.42
2022-12-12T04:53:18.590Z,1004.49
2022-12-12T04:54:16.200Z,1004.45
2022-12-12T04:55:16.589Z,1004.49
2022-12-12T04:56:16.781Z,1004.43
2022-12-12T04:57:17.122Z,1004.53
2022-12-12T04:58:17.452Z,1004.46
2022-12-12T04:59:17.784Z,1004.54
2022-12-12T05:00:18.121Z,1004.49
2022-12-12T05:01:18.514Z,1004.54
2022-12-12T05:02:18.777Z,1004.53
2022-12-12T05:03:18.973Z,1004.53
2022-12-12T05:04:19.302Z,1004.56
2022-12-12T05:05:19.646Z,1004.58
2022-12-12T05:06:19.960Z,1004.60
2022-12-12T05:07:20.301Z,1004.63
2022-12-12T05:08:20.695Z,1004.60
2022-12-12T05:09:20.921Z,1004.60
2022-12-12T05:10:21.241Z,1004.65
2022-12-12T05:11:21.566Z,1004.57
2022-12-12T05:12:21.905Z,1004.64
2022-12-12T05:13:22.255Z,1004.59
2022-12-12T05:14:22.463Z,1004.57
2022-12-12T05:15:22.813Z,1004.64
2022-12-12T05:16:23.158Z,1004.60
2022-12-12T05:17:23.498Z,1004.62
2022-12-12T05:18:23.722Z,1004.59
2022-12-12T05:19:24.053Z,1004.61
2022-12-12T05:20:24.402Z,1004.58
2022-12-12T05:21:24.619Z,1004.53
2022-12-12T05:22:25.095Z,1004.61
2022-12-12T05:23:28.957Z,1004.58
2022-12-12T05:24:26.532Z,1004.60
2022-12-12T05:25:25.794Z,1004.62
2022-12-12T05:26:26.135Z,1004.61
2022-12-12T05:27:26.383Z,1004.61
2022-12-12T05:28:26.692Z,1004.62
2022-12-12T05:29:27.017Z,1004.59
2022-12-12T05:30:27.444Z,1004.64
2022-12-12T05:31:27.664Z,1004.58
2022-12-12T05:32:28.023Z,1004.62
2022-12-12T05:33:28.248Z,1004.60
2022-12-12T05:34:28.569Z,1004.67
2022-12-12T05:35:28.821Z,1004.66
2022-12-12T05:36:29.151Z,1004.66
2022-12-12T05:37:29.501Z,1004.63
2022-12-12T05:38:29.836Z,1004.65
2022-12-12T05:39:30.165Z,1004.65
2022-12-12T05:40:30.534Z,1004.66
2022-12-12T05:41:30.726Z,1004.66
2022-12-12T05:42:31.111Z,1004.70
2022-12-12T05:43:31.316Z,1004.65
2022-12-12T05:44:31.548Z,1004.69
2022-12-12T05:45:31.877Z,1004.65
2022-12-12T05:46:32.248Z,1004.67
2022-12-12T05:47:32.616Z,1004.71
2022-12-12T05:48:32.809Z,1004.69
2022-12-12T05:49:33.055Z,1004.74
2022-12-12T05:50:33.279Z,1004.64
2022-12-12T05:51:33.497Z,1004.71
2022-12-12T05:52:33.886Z,1004.70
2022-12-12T05:53:42.077Z,1004.65
2022-12-12T05:54:35.457Z,1004.70
2022-12-12T05:55:34.752Z,1004.69
2022-12-12T05:56:34.966Z,1004.77
2022-12-12T05:57:35.356Z,1004.72
2022-12-12T05:58:35.617Z,1004.81
2022-12-12T05:59:35.839Z,1004.75
2022-12-12T06:00:36.088Z,1004.78
2022-12-12T06:01:36.337Z,1004.85
2022-12-12T06:02:36.632Z,1004.79
2022-12-12T06:03:36.876Z,1004.81
2022-12-12T06:04:37.079Z,1004.88
2022-12-12T06:05:37.298Z,1004.86
2022-12-12T06:06:37.869Z,1004.85
2022-12-12T06:07:37.938Z,1004.89
2022-12-12T06:08:38.261Z,1004.86
2022-12-12T06:09:38.523Z,1004.89
2022-12-12T06:10:38.718Z,1004.84
2022-12-12T06:11:39.053Z,1004.84
2022-12-12T06:12:39.409Z,1004.90
2022-12-12T06:13:39.610Z,1004.87
2022-12-12T06:14:39.942Z,1004.93
2022-12-12T06:15:40.288Z,1004.92
2022-12-12T06:16:40.612Z,1004.90
2022-12-12T06:17:41.138Z,1004.91
2022-12-12T06:18:41.280Z,1004.97
2022-12-12T06:19:41.598Z,1004.91
2022-12-12T06:20:41.939Z,1004.94
2022-12-12T06:21:42.301Z,1004.97
2022-12-12T06:22:42.583Z,1005.01
2022-12-12T06:23:42.878Z,1004.93
2022-12-12T06:24:43.103Z,1004.97
2022-12-12T06:25:43.451Z,1004.92
2022-12-12T06:26:43.712Z,1004.94
2022-12-12T06:27:43.992Z,1004.97
2022-12-12T06:28:44.221Z,1005.03
2022-12-12T06:29:44.506Z,1004.99
2022-12-12T06:30:44.766Z,1005.04
2022-12-12T06:31:45.013Z,1005.00
2022-12-12T06:32:45.761Z,1005.08
2022-12-12T06:33:45.601Z,1005.04
2022-12-12T06:34:45.850Z,1005.15
2022-12-12T06:35:46.088Z,1005.10
2022-12-12T06:36:46.375Z,1005.11
2022-12-12T06:37:47.104Z,1005.17
2022-12-12T06:38:46.919Z,1005.17
2022-12-12T06:39:47.189Z,1005.15
2022-12-12T06:40:47.548Z,1005.12
2022-12-12T06:41:47.647Z,1005.09
2022-12-12T06:42:48.949Z,1005.15
2022-12-12T06:43:48.215Z,1005.09
2022-12-12T06:44:48.453Z,1005.13
2022-12-12T06:45:48.666Z,1005.07
2022-12-12T06:46:49.023Z,1005.10
2022-12-12T06:47:49.253Z,1005.07
2022-12-12T06:48:49.603Z,1005.12
2022-12-12T06:49:49.836Z,1005.08
2022-12-12T06:50:50.092Z,1005.13
2022-12-12T06:51:50.314Z,1005.06
2022-12-12T06:52:50.564Z,1005.11
2022-12-12T06:53:50.835Z,1005.06
2022-12-12T06:54:51.076Z,1005.07
2022-12-12T06:55:51.297Z,1005.10
2022-12-12T06:56:51.692Z,1005.10
2022-12-12T06:57:51.930Z,1005.13
2022-12-12T06:58:52.195Z,1005.04
2022-12-12T06:59:52.505Z,1005.05
2022-12-12T07:00:52.736Z,1005.12
2022-12-12T07:01:53.025Z,1005.12
2022-12-12T07:02:53.324Z,1005.15
2022-12-12T07:03:53.581Z,1005.10
2022-12-12T07:04:53.955Z,1005.10
2022-12-12T07:05:54.218Z,1005.16
2022-12-12T07:06:54.486Z,1005.16
2022-12-12T07:07:54.750Z,1005.11
2022-12-12T07:08:54.995Z,1005.17
2022-12-12T07:09:55.407Z,1005.16
2022-12-12T07:10:55.634Z,1005.20
2022-12-12T07:11:55.986Z,1005.17
2022-12-12T07:12:57.697Z,1005.16
2022-12-12T07:13:56.534Z,1005.23
2022-12-12T07:14:56.799Z,1005.21
2022-12-12T07:15:57.083Z,1005.22
2022-12-12T07:16:57.335Z,1005.27
2022-12-12T07:17:57.585Z,1005.26
2022-12-12T07:18:57.797Z,1005.20
2022-12-12T07:19:58.157Z,1005.25
2022-12-12T07:20:58.396Z,1005.31
2022-12-12T07:22:01.644Z,1005.25
2022-12-12T07:22:59.971Z,1005.23
2022-12-12T07:23:59.288Z,1005.26
2022-12-12T07:24:59.587Z,1005.30
2022-12-12T07:25:59.836Z,1005.31
2022-12-12T07:27:00.099Z,1005.25
2022-12-12T07:28:00.397Z,1005.28
2022-12-12T07:29:00.762Z,1005.30
2022-12-12T07:30:00.952Z,1005.25
2022-12-12T07:31:01.317Z,1005.34
2022-12-12T07:32:01.507Z,1005.34
2022-12-12T07:33:01.800Z,1005.38
2022-12-12T07:34:02.041Z,1005.41
2022-12-12T07:35:02.288Z,1005.42
2022-12-12T07:36:02.541Z,1005.38
2022-12-12T07:37:03.474Z,1005.43
2022-12-12T07:38:03.098Z,1005.48
2022-12-12T07:39:03.364Z,1005.41
2022-12-12T07:40:03.615Z,1005.51
2022-12-12T07:41:03.858Z,1005.53
2022-12-12T07:42:04.099Z,1005.42
2022-12-12T07:43:04.388Z,1005.49
2022-12-12T07:44:04.630Z,1005.41
2022-12-12T07:45:04.890Z,1005.51
2022-12-12T07:46:05.165Z,1005.50
2022-12-12T07:47:05.470Z,1005.46
2022-12-12T07:48:05.712Z,1005.50
2022-12-12T07:49:05.962Z,1005.53
2022-12-12T07:50:06.262Z,1005.56
2022-12-12T07:51:06.502Z,1005.53
2022-12-12T07:52:06.743Z,1005.46
2022-12-12T07:53:06.991Z,1005.50
2022-12-12T07:54:07.239Z,1005.57
2022-12-12T07:55:07.480Z,1005.49
2022-12-12T07:56:07.719Z,1005.52
2022-12-12T07:57:07.961Z,1005.49
2022-12-12T07:58:08.217Z,1005.49
2022-12-12T07:59:08.472Z,1005.52
2022-12-12T08:00:08.729Z,1005.60
2022-12-12T08:01:14.130Z,1005.58
2022-12-12T08:02:10.235Z,1005.54
2022-12-12T08:03:09.561Z,1005.52
2022-12-12T08:04:09.841Z,1005.59
2022-12-12T08:05:10.164Z,1005.61
2022-12-12T08:06:10.332Z,1005.54
2022-12-12T08:07:10.571Z,1005.53
2022-12-12T08:08:10.868Z,1005.55
2022-12-12T08:09:11.175Z,1005.53
2022-12-12T08:10:11.423Z,1005.53
2022-12-12T08:11:11.671Z,1005.54
2022-12-12T08:12:12.013Z,1005.51
2022-12-12T08:13:12.332Z,1005.49
2022-12-12T08:14:13.345Z,1005.50
2022-12-12T08:15:13.151Z,1005.55
2022-12-12T08:16:13.260Z,1005.52
2022-12-12T08:17:13.533Z,1005.56
2022-12-12T08:18:13.837Z,1005.59
2022-12-12T08:19:14.120Z,1005.61
2022-12-12T08:20:14.395Z,1005.60
2022-12-12T08:21:16.663Z,1005.55
2022-12-12T08:22:15.962Z,1005.53
2022-12-12T08:23:15.212Z,1005.60
2022-12-12T08:24:15.475Z,1005.66
2022-12-12T08:25:15.900Z,1005.68
2022-12-12T08:26:16.084Z,1005.69
2022-12-12T08:27:16.347Z,1005.72
2022-12-12T08:28:16.624Z,1005.69
2022-12-12T08:29:16.913Z,1005.77
2022-12-12T08:30:17.184Z,1005.69
2022-12-12T08:31:17.532Z,1005.78
2022-12-12T08:32:17.673Z,1005.74
2022-12-12T08:33:17.944Z,1005.74
2022-12-12T08:34:18.195Z,1005.73
2022-12-12T08:35:18.489Z,1005.74
2022-12-12T08:36:18.774Z,1005.78
2022-12-12T08:37:19.171Z,1005.74
2022-12-12T08:38:19.304Z,1005.77
2022-12-12T08:39:19.579Z,1005.79
2022-12-12T08:40:19.845Z,1005.85
2022-12-12T08:41:20.127Z,1005.85
2022-12-12T08:42:20.393Z,1005.86
2022-12-12T08:43:20.678Z,1005.85
2022-12-12T08:44:20.966Z,1005.97
2022-12-12T08:45:21.235Z,1005.97
2022-12-12T08:46:21.564Z,1005.89
2022-12-12T08:47:21.815Z,1005.97
2022-12-12T08:48:22.097Z,1005.99
2022-12-12T08:49:22.396Z,1005.97
2022-12-12T08:50:22.643Z,1005.98
2022-12-12T08:51:22.936Z,1005.97
2022-12-12T08:52:23.195Z,1005.97
2022-12-12T08:53:23.467Z,1005.96
2022-12-12T08:54:23.706Z,1005.97
2022-12-12T08:55:23.956Z,1006.03
2022-12-12T08:56:24.248Z,1005.97
2022-12-12T08:57:26.193Z,1005.95
2022-12-12T08:58:24.856Z,1006.00
2022-12-12T08:59:25.126Z,1005.96
2022-12-12T09:00:25.388Z,1006.04
2022-12-12T09:01:25.692Z,1006.03
2022-12-12T09:02:26.028Z,1006.06
2022-12-12T09:03:29.564Z,1006.10
2022-12-12T09:04:26.567Z,1006.09
2022-12-12T09:05:26.816Z,1006.06
2022-12-12T09:06:27.079Z,1006.11
2022-12-12T09:07:27.343Z,1006.08
2022-12-12T09:08:27.676Z,1006.09
2022-12-12T09:09:27.939Z,1006.08
2022-12-12T09:10:28.208Z,1006.15
2022-12-12T09:11:28.467Z,1006.09
2022-12-12T09:12:28.723Z,1006.18
2022-12-12T09:13:29.010Z,1006.14
2022-12-12T09:14:29.249Z,1006.19
2022-12-12T09:15:29.508Z,1006.14
2022-12-12T09:16:29.847Z,1006.12
2022-12-12T09:17:30.860Z,1006.13
2022-12-12T09:18:30.357Z,1006.16
2022-12-12T09:19:30.602Z,1006.15
2022-12-12T09:20:30.849Z,1006.10
2022-12-12T09:21:31.116Z,1006.12
2022-12-12T09:22:31.364Z,1006.19
2022-12-12T09:23:31.619Z,1006.11
2022-12-12T09:24:31.860Z,1006.12
2022-12-12T09:25:32.109Z,1006.18
2022-12-12T09:26:32.369Z,1006.18
2022-12-12T09:27:32.640Z,1006.14
2022-12-12T09:28:32.902Z,1006.17
2022-12-12T09:29:33.157Z,1006.15
2022-12-12T09:30:33.443Z,1006.18
2022-12-12T09:31:33.771Z,1006.19
2022-12-12T09:32:34.061Z,1006.17
2022-12-12T09:33:34.404Z,1006.22
2022-12-12T09:34:34.667Z,1006.22
2022-12-12T09:35:34.970Z,1006.19
2022-12-12T09:36:35.253Z,1006.23
2022-12-12T09:37:35.546Z,1006.21
2022-12-12T09:38:35.801Z,1006.29
2022-12-12T09:39:36.093Z,1006.23
2022-12-12T09:40:36.357Z,1006.29
2022-12-12T09:41:36.613Z,1006.26
2022-12-12T09:42:36.910Z,1006.33
2022-12-12T09:43:37.184Z,1006.37
2022-12-12T09:44:38.242Z,1006.32
2022-12-12T09:45:37.709Z,1006.28
2022-12-12T09:46:37.992Z,1006.27
2022-12-12T09:47:38.246Z,1006.31
2022-12-12T09:48:38.525Z,1006.18
2022-12-12T09:49:43.510Z,1006.23
2022-12-12T09:50:40.013Z,1006.26
2022-12-12T09:51:39.323Z,1006.17
2022-12-12T09:52:39.606Z,1006.25
2022-12-12T09:53:39.875Z,1006.29
2022-12-12T09:54:40.122Z,1006.27
2022-12-12T09:55:40.382Z,1006.30
2022-12-12T09:56:40.643Z,1006.21
2022-12-12T09:57:40.912Z,1006.23
2022-12-12T09:58:47.353Z,1006.29
2022-12-12T09:59:42.401Z,1006.18
2022-12-12T10:00:41.772Z,1006.23
2022-12-12T10:01:42.071Z,1006.31
2022-12-12T10:02:42.376Z,1006.27
2022-12-12T10:03:42.642Z,1006.31
2022-12-12T10:04:47.798Z,1006.21
2022-12-12T10:05:44.205Z,1006.24
2022-12-12T10:06:43.396Z,1006.21
2022-12-12T10:07:43.675Z,1006.20
2022-12-12T10:08:43.953Z,1006.22
2022-12-12T10:09:45.026Z,1006.23
2022-12-12T10:10:44.454Z,1006.26
2022-12-12T10:11:44.703Z,1006.29
2022-12-12T10:12:44.972Z,1006.24
2022-12-12T10:13:45.238Z,1006.24
2022-12-12T10:14:45.498Z,1006.23
2022-12-12T10:15:45.735Z,1006.25
2022-12-12T10:16:46.129Z,1006.33
2022-12-12T10:17:46.225Z,1006.29
2022-12-12T10:18:47.257Z,1006.32
2022-12-12T10:19:46.787Z,1006.26
2022-12-12T10:20:47.039Z,1006.32
2022-12-12T10:21:47.274Z,1006.26
2022-12-12T10:22:47.527Z,1006.23
2022-12-12T10:23:47.792Z,1006.23
2022-12-12T10:24:48.039Z,1006.31
2022-12-12T10:25:48.288Z,1006.34
2022-12-12T10:26:48.610Z,1006.29
2022-12-12T10:27:48.870Z,1006.27
2022-12-12T10:28:49.125Z,1006.29
2022-12-12T10:29:49.368Z,1006.30
2022-12-12T10:30:49.616Z,1006.28
2022-12-12T10:31:49.892Z,1006.24
2022-12-12T10:32:50.146Z,1006.18
2022-12-12T10:33:50.397Z,1006.20
2022-12-12T10:34:50.641Z,1006.23
2022-12-12T10:35:50.936Z,1006.19
2022-12-12T10:36:51.189Z,1006.21
2022-12-12T10:37:51.444Z,1006.19
2022-12-12T10:38:51.708Z,1006.12
2022-12-12T10:39:51.955Z,1006.13
2022-12-12T10:40:52.204Z,1006.21
2022-12-12T10:41:53.025Z,1006.14
2022-12-12T10:42:53.461Z,1006.09
2022-12-12T10:43:52.986Z,1006.15
2022-12-12T10:44:53.247Z,1006.17
2022-12-12T10:45:53.578Z,1006.17
2022-12-12T10:46:53.806Z,1006.18
2022-12-12T10:47:54.078Z,1006.23
2022-12-12T10:48:54.329Z,1006.23
2022-12-12T10:49:54.640Z,1006.25
2022-12-12T10:50:54.909Z,1006.19
2022-12-12T10:51:55.166Z,1006.24
2022-12-12T10:52:55.410Z,1006.14
2022-12-12T10:53:55.668Z,1006.20
2022-12-12T10:54:55.939Z,1006.11
2022-12-12T10:55:56.224Z,1006.11
2022-12-12T10:56:56.480Z,1006.11
2022-12-12T10:57:56.711Z,1006.12
2022-12-12T10:58:56.990Z,1006.20
2022-12-12T10:59:57.247Z,1006.08
2022-12-12T11:00:57.523Z,1006.18
2022-12-12T11:02:13.164Z,1006.14
2022-12-12T11:03:00.424Z,1006.14
2022-12-12T11:03:58.461Z,1006.10
2022-12-12T11:04:58.711Z,1006.16
2022-12-12T11:05:58.951Z,1006.17
2022-12-12T11:06:59.195Z,1006.17
2022-12-12T11:07:59.504Z,1006.15
2022-12-12T11:08:59.688Z,1006.23
2022-12-12T11:10:02.195Z,1006.23
2022-12-12T11:11:00.228Z,1006.21
2022-12-12T11:12:00.472Z,1006.21
2022-12-12T11:13:00.719Z,1006.18
2022-12-12T11:14:00.983Z,1006.21
2022-12-12T11:15:01.240Z,1006.09
2022-12-12T11:16:01.529Z,1006.18
2022-12-12T11:17:01.805Z,1006.08
2022-12-12T11:18:06.137Z,1006.13
2022-12-12T11:19:02.442Z,1006.14
2022-12-12T11:20:02.702Z,1006.22
2022-12-12T11:21:02.974Z,1006.18
2022-12-12T11:22:03.229Z,1006.16
2022-12-12T11:23:03.471Z,1006.15
2022-12-12T11:24:03.732Z,1006.24
2022-12-12T11:25:03.984Z,1006.10
2022-12-12T11:26:04.236Z,1006.08
2022-12-12T11:27:04.500Z,1006.16
2022-12-12T11:28:06.810Z,1006.23
2022-12-12T11:29:05.539Z,1006.26
2022-12-12T11:30:05.337Z,1006.13
2022-12-12T11:31:05.600Z,1006.28
2022-12-12T11:32:05.900Z,1006.20
2022-12-12T11:33:06.143Z,1006.23
2022-12-12T11:34:06.429Z,1006.21
2022-12-12T11:35:06.668Z,1006.26
2022-12-12T11:36:06.923Z,1006.27
2022-12-12T11:37:07.176Z,1006.27
2022-12-12T11:38:07.434Z,1006.14
2022-12-12T11:39:07.700Z,1006.16
2022-12-12T11:40:08.000Z,1006.33
2022-12-12T11:41:08.282Z,1006.25
2022-12-12T11:42:08.543Z,1006.25
2022-12-12T11:43:08.805Z,1006.23
2022-12-12T11:44:09.069Z,1006.23
2022-12-12T11:45:09.319Z,1006.22
2022-12-12T11:46:09.623Z,1006.14
2022-12-12T11:47:09.895Z,1006.24
2022-12-12T11:48:10.163Z,1006.24
2022-12-12T11:49:10.434Z,1006.21
2022-12-12T11:50:11.165Z,1006.17
2022-12-12T11:51:10.923Z,1006.17
2022-12-12T11:52:11.176Z,1006.15
2022-12-12T11:53:11.432Z,1006.21
2022-12-12T11:54:11.685Z,1006.16
2022-12-12T11:55:12.292Z,1006.15
2022-12-12T11:56:13.044Z,1006.20
2022-12-12T11:57:12.614Z,1006.15
2022-12-12T11:58:12.947Z,1006.19
2022-12-12T11:59:13.117Z,1006.16
2022-12-12T12:00:13.368Z,1006.17
2022-12-12T12:01:13.635Z,1006.15
2022-12-12T12:02:13.895Z,1006.17
2022-12-12T12:03:14.174Z,1006.09
2022-12-12T12:04:14.525Z,1006.08
2022-12-12T12:05:15.085Z,1006.19
2022-12-12T12:06:15.035Z,1006.24
2022-12-12T12:07:15.278Z,1006.13
2022-12-12T12:08:15.600Z,1006.14
2022-12-12T12:09:15.876Z,1006.05